createdAt,value
2019-03-05T00:02:17.425Z,98927
2019-03-05T00:07:40.141Z,98920
2019-03-05T00:13:02.929Z,98920
2019-03-05T00:18:26.406Z,98923
2019-03-05T00:23:49.888Z,98921
2019-03-05T00:29:12.973Z,98924
2019-03-05T00:34:35.685Z,98940
2019-03-05T00:39:58.521Z,98944
2019-03-05T00:45:21.777Z,98939
2019-03-05T00:50:44.475Z,98941
2019-03-05T00:56:07.837Z,98938
2019-03-05T01:01:30.681Z,98952
2019-03-05T01:06:53.434Z,98960
2019-03-05T01:12:17.050Z,98970
2019-03-05T01:17:40.026Z,98960
2019-03-05T01:23:02.851Z,98985
2019-03-05T01:28:25.622Z,98980
2019-03-05T01:33:49.578Z,98984
2019-03-05T01:39:14.671Z,98986
2019-03-05T01:44:37.413Z,98992
2019-03-05T01:50:00.043Z,98995
2019-03-05T01:55:22.678Z,98997
2019-03-05T02:00:45.405Z,99006
2019-03-05T02:06:08.030Z,99003
2019-03-05T02:11:31.729Z,99022
2019-03-05T02:16:54.386Z,99020
2019-03-05T02:22:17.321Z,99018
2019-03-05T02:27:40.096Z,99036
2019-03-05T02:33:02.844Z,99037
2019-03-05T02:38:26.742Z,99042
2019-03-05T02:43:49.458Z,99041
2019-03-05T02:49:12.830Z,99042
2019-03-05T02:54:37.580Z,99036
2019-03-05T03:00:00.491Z,99048
2019-03-05T03:05:22.938Z,99046
2019-03-05T03:10:45.672Z,99053
2019-03-05T03:16:08.402Z,99031
2019-03-05T03:21:31.525Z,99045
2019-03-05T03:26:55.383Z,99049
2019-03-05T03:32:18.003Z,99054
2019-03-05T03:37:41.814Z,99043
2019-03-05T03:43:04.722Z,99054
2019-03-05T03:48:27.640Z,99064
2019-03-05T03:53:50.505Z,99071
2019-03-05T03:59:13.520Z,99082
2019-03-05T04:04:36.318Z,99072
2019-03-05T04:09:58.974Z,99101
2019-03-05T04:15:21.996Z,99095
2019-03-05T04:20:45.291Z,99077
2019-03-05T04:26:07.891Z,99092
2019-03-05T04:31:30.529Z,99107
2019-03-05T04:36:53.210Z,99102
2019-03-05T04:42:15.902Z,99110
2019-03-05T04:47:39.486Z,99115
2019-03-05T04:53:02.212Z,99117
2019-03-05T04:58:25.265Z,99121
2019-03-05T05:03:47.971Z,99117
2019-03-05T05:09:10.804Z,99117
2019-03-05T05:14:33.811Z,99122
2019-03-05T05:19:56.994Z,99133
2019-03-05T05:25:19.932Z,99132
2019-03-05T05:30:43.361Z,99127
2019-03-05T05:36:08.078Z,99133
2019-03-05T05:41:30.957Z,99152
2019-03-05T05:46:54.088Z,99150
2019-03-05T05:52:17.083Z,99140
2019-03-05T05:57:39.804Z,99147
2019-03-05T06:03:02.486Z,99149
2019-03-05T06:08:25.175Z,99153
2019-03-05T06:13:47.854Z,99150
2019-03-05T06:19:10.565Z,99158
2019-03-05T06:24:33.294Z,99166
2019-03-05T06:29:55.984Z,99169
2019-03-05T06:35:18.711Z,99173
2019-03-05T06:40:41.661Z,99184
2019-03-05T06:46:04.499Z,99184
2019-03-05T06:51:27.284Z,99190
2019-03-05T06:56:50.082Z,99189
2019-03-05T07:02:13.038Z,99192
2019-03-05T07:07:35.730Z,99202
2019-03-05T07:12:58.662Z,99207
2019-03-05T07:18:23.626Z,99219
2019-03-05T07:23:44.978Z,99215
2019-03-05T07:29:07.786Z,99229
2019-03-05T07:34:30.601Z,99225
2019-03-05T07:39:53.860Z,99229
2019-03-05T07:45:17.480Z,99244
2019-03-05T07:50:40.974Z,99254
2019-03-05T07:56:03.638Z,99259
2019-03-05T08:01:26.373Z,99252
2019-03-05T08:06:49.104Z,99281
2019-03-05T08:12:12.867Z,99269
2019-03-05T08:17:35.820Z,99268
2019-03-05T08:22:58.640Z,99281
2019-03-05T08:28:21.432Z,99291
2019-03-05T08:33:44.849Z,99292
2019-03-05T08:39:07.716Z,99293
2019-03-05T08:44:31.401Z,99301
2019-03-05T08:49:55.018Z,99313
2019-03-05T08:55:19.322Z,99320
2019-03-05T09:00:42.019Z,99327
2019-03-05T09:06:05.936Z,99330
2019-03-05T09:11:28.763Z,99327
2019-03-05T09:16:52.517Z,99335
2019-03-05T09:22:15.277Z,99339
2019-03-05T09:27:38.826Z,99335
2019-03-05T09:33:01.546Z,99348
2019-03-05T09:38:24.297Z,99349
2019-03-05T09:43:49.120Z,99358
2019-03-05T09:49:12.767Z,99368
2019-03-05T09:54:36.434Z,99372
2019-03-05T10:00:00.746Z,99374
2019-03-05T10:05:23.378Z,99375
2019-03-05T10:10:46.038Z,99391
2019-03-05T10:16:08.739Z,99406
2019-03-05T10:21:31.986Z,99415
2019-03-05T10:26:55.734Z,99415
2019-03-05T10:32:18.445Z,99412
2019-03-05T10:37:41.144Z,99411
2019-03-05T10:43:08.627Z,99421
2019-03-05T10:48:30.314Z,99426
2019-03-05T10:53:51.355Z,99436
2019-03-05T10:59:14.263Z,99437
2019-03-05T11:04:45.367Z,99444
2019-03-05T11:10:00.603Z,99445
2019-03-05T11:15:23.283Z,99453
2019-03-05T11:20:45.980Z,99459
2019-03-05T11:26:08.632Z,99454
2019-03-05T11:31:31.320Z,99464
2019-03-05T11:36:54.105Z,99467
2019-03-05T11:42:19.391Z,99470
2019-03-05T11:47:42.107Z,99478
2019-03-05T11:53:05.471Z,99487
2019-03-05T11:58:28.226Z,99495
2019-03-05T12:03:51.982Z,99507
2019-03-05T12:09:14.650Z,99513
2019-03-05T12:14:37.459Z,99519
2019-03-05T12:20:00.256Z,99516
2019-03-05T12:25:23.714Z,99515
2019-03-05T12:30:45.597Z,99526
2019-03-05T12:36:08.940Z,99516
2019-03-05T12:41:31.645Z,99517
2019-03-05T12:46:54.710Z,99522
2019-03-05T12:52:17.487Z,99527
2019-03-05T12:57:40.323Z,99530
2019-03-05T13:03:03.998Z,99524
2019-03-05T13:08:28.593Z,99533
2019-03-05T13:13:51.280Z,99538
2019-03-05T13:19:11.065Z,99535
2019-03-05T13:24:34.342Z,99547
2019-03-05T13:29:57.951Z,99546
2019-03-05T13:35:20.667Z,99550
2019-03-05T13:40:43.293Z,99542
2019-03-05T13:46:05.190Z,99562
2019-03-05T13:51:27.898Z,99569
2019-03-05T13:56:50.701Z,99580
2019-03-05T14:02:13.956Z,99589
2019-03-05T14:07:36.711Z,99594
2019-03-05T14:12:59.530Z,99592
2019-03-05T14:18:22.227Z,99603
2019-03-05T14:23:46.342Z,99587
2019-03-05T14:29:09.043Z,99589
2019-03-05T14:34:31.732Z,99601
2019-03-05T14:39:54.394Z,99598
2019-03-05T14:45:17.297Z,99608
2019-03-05T14:50:40.302Z,99603
2019-03-05T14:56:02.960Z,99609
2019-03-05T15:01:26.509Z,99611
2019-03-05T15:06:49.916Z,99617
2019-03-05T15:12:12.898Z,99615
2019-03-05T15:17:35.680Z,99618
2019-03-05T15:23:00.536Z,99610
2019-03-05T15:28:23.313Z,99619
2019-03-05T15:33:46.029Z,99622
2019-03-05T15:39:08.685Z,99623
2019-03-05T15:44:31.539Z,99646
2019-03-05T15:49:54.219Z,99641
2019-03-05T15:55:17.083Z,99631
2019-03-05T16:00:40.943Z,99641
2019-03-05T16:06:04.676Z,99647
2019-03-05T16:11:30.127Z,99655
2019-03-05T16:16:51.921Z,99656
2019-03-05T16:22:14.173Z,99663
2019-03-05T16:27:38.536Z,99666
2019-03-05T16:33:01.306Z,99677
2019-03-05T16:38:23.978Z,99688
2019-03-05T16:43:47.391Z,99696
2019-03-05T16:49:10.765Z,99702
2019-03-05T16:54:33.532Z,99705
2019-03-05T16:59:57.531Z,99715
2019-03-05T17:05:22.180Z,99716
2019-03-05T17:10:42.860Z,99723
2019-03-05T17:16:05.660Z,99738
2019-03-05T17:21:28.373Z,99749
2019-03-05T17:26:51.001Z,99759
2019-03-05T17:32:14.729Z,99769
2019-03-05T17:37:37.353Z,99776
2019-03-05T17:43:00.003Z,99788
2019-03-05T17:48:22.776Z,99799
2019-03-05T17:53:45.517Z,99806
2019-03-05T17:59:08.268Z,99820
2019-03-05T18:04:32.001Z,99824
2019-03-05T18:09:55.465Z,99826
2019-03-05T18:15:19.115Z,99834
2019-03-05T18:20:51.368Z,99843
2019-03-05T18:26:14.147Z,99846
2019-03-05T18:31:36.875Z,99857
2019-03-05T18:36:59.782Z,99860
2019-03-05T18:42:22.493Z,99858
2019-03-05T18:47:45.246Z,99874
2019-03-05T18:53:08.151Z,99878
2019-03-05T18:58:30.976Z,99883
2019-03-05T19:03:54.535Z,99883
2019-03-05T19:09:17.478Z,99884
2019-03-05T19:14:40.251Z,99885
2019-03-05T19:20:02.999Z,99890
2019-03-05T19:25:25.776Z,99891
2019-03-05T19:30:49.324Z,99903
2019-03-05T19:36:14.318Z,99902
2019-03-05T19:41:37.218Z,99908
2019-03-05T19:46:59.963Z,99917
2019-03-05T19:52:23.148Z,99932
2019-03-05T19:57:46.324Z,99925
2019-03-05T20:03:09.721Z,99932
2019-03-05T20:08:39.358Z,99929
2019-03-05T20:13:56.659Z,99941
2019-03-05T20:19:19.734Z,99939
2019-03-05T20:24:42.949Z,99949
2019-03-05T20:30:06.101Z,99944
2019-03-05T20:35:29.328Z,99944
2019-03-05T20:40:53.504Z,99938
2019-03-05T20:46:16.513Z,99946
2019-03-05T20:51:40.222Z,99959
2019-03-05T20:57:03.514Z,99961
2019-03-05T21:02:26.602Z,99964
2019-03-05T21:07:49.558Z,99973
2019-03-05T21:13:12.375Z,99965
2019-03-05T21:18:35.674Z,99970
2019-03-05T21:23:58.679Z,99968
2019-03-05T21:29:21.477Z,99971
2019-03-05T21:34:44.237Z,99969
2019-03-05T21:40:07.821Z,99959
2019-03-05T21:45:30.489Z,99966
2019-03-05T21:50:53.838Z,99971
2019-03-05T21:56:16.499Z,99980
2019-03-05T22:01:39.188Z,99988
2019-03-05T22:07:01.856Z,99991
2019-03-05T22:12:24.554Z,99997
2019-03-05T22:17:47.832Z,100002
2019-03-05T22:23:10.497Z,100001
2019-03-05T22:28:33.612Z,100005
2019-03-05T22:33:56.444Z,100006
2019-03-05T22:39:19.282Z,100005
2019-03-05T22:44:42.314Z,100006
2019-03-05T22:50:05.266Z,100004
2019-03-05T22:55:27.983Z,100004
2019-03-05T23:00:50.854Z,100004
2019-03-05T23:06:13.731Z,100000
2019-03-05T23:11:36.582Z,99998
2019-03-05T23:17:00.045Z,99998
2019-03-05T23:22:22.804Z,99995
2019-03-05T23:27:45.609Z,100001
2019-03-05T23:33:08.509Z,100004
2019-03-05T23:38:31.318Z,99993
2019-03-05T23:43:54.199Z,100003
2019-03-05T23:49:17.080Z,99987
2019-03-05T23:54:39.800Z,99981
